createdAt,value
2017-10-20T00:01:47.138Z,8.80
2017-10-20T00:04:15.268Z,9.60
2017-10-20T00:06:43.426Z,9.90
2017-10-20T00:09:11.592Z,9.93
2017-10-20T00:11:39.789Z,10.13
2017-10-20T00:14:08.725Z,9.73
2017-10-20T00:16:37.159Z,9.70
2017-10-20T00:19:05.422Z,9.57
2017-10-20T00:21:35.457Z,10.20
2017-10-20T00:24:04.374Z,9.13
2017-10-20T00:26:34.126Z,9.53
2017-10-20T00:29:02.296Z,9.67
2017-10-20T00:31:30.494Z,8.40
2017-10-20T00:33:58.665Z,8.87
2017-10-20T00:36:26.816Z,7.40
2017-10-20T00:38:54.968Z,8.73
2017-10-20T00:41:23.124Z,8.33
2017-10-20T00:43:51.321Z,8.10
2017-10-20T00:46:19.624Z,7.80
2017-10-20T00:48:48.730Z,7.43
2017-10-20T00:51:16.877Z,7.53
2017-10-20T00:53:45.077Z,7.40
2017-10-20T00:56:13.294Z,7.23
2017-10-20T00:58:41.531Z,7.80
2017-10-20T01:01:09.756Z,7.50
2017-10-20T01:03:38.712Z,7.13
2017-10-20T01:06:06.855Z,6.70
2017-10-20T01:08:35.068Z,7.30
2017-10-20T01:11:03.253Z,7.50
2017-10-20T01:13:31.468Z,7.53
2017-10-20T01:15:59.742Z,6.63
2017-10-20T01:18:28.770Z,6.63
2017-10-20T01:20:56.923Z,6.33
2017-10-20T01:23:25.137Z,7.60
2017-10-20T01:25:53.289Z,7.00
2017-10-20T01:28:21.426Z,7.57
2017-10-20T01:30:49.571Z,6.90
2017-10-20T01:33:17.727Z,8.00
2017-10-20T01:35:45.957Z,7.30
2017-10-20T01:38:14.127Z,7.00
2017-10-20T01:40:43.189Z,7.20
2017-10-20T01:43:12.153Z,7.87
2017-10-20T01:45:41.183Z,7.23
2017-10-20T01:48:10.756Z,7.87
2017-10-20T01:50:39.755Z,7.37
2017-10-20T01:53:07.936Z,7.20
2017-10-20T01:55:36.111Z,7.13
2017-10-20T01:58:04.304Z,7.47
2017-10-20T02:00:33.519Z,7.30
2017-10-20T02:03:01.735Z,6.60
2017-10-20T02:05:29.950Z,7.03
2017-10-20T02:07:58.329Z,7.30
2017-10-20T02:10:26.499Z,7.33
2017-10-20T02:12:54.650Z,7.60
2017-10-20T02:15:22.767Z,7.23
2017-10-20T02:17:50.919Z,7.60
2017-10-20T02:20:19.866Z,6.90
2017-10-20T02:22:48.048Z,7.80
2017-10-20T02:25:16.964Z,8.03
2017-10-20T02:27:45.933Z,8.80
2017-10-20T02:30:14.858Z,7.90
2017-10-20T02:32:43.065Z,7.70
2017-10-20T02:35:11.284Z,8.40
2017-10-20T02:37:39.447Z,7.70
2017-10-20T02:40:09.253Z,8.83
2017-10-20T02:42:37.366Z,8.60
2017-10-20T02:45:05.525Z,7.90
2017-10-20T02:47:34.709Z,8.17
2017-10-20T02:50:03.707Z,8.00
2017-10-20T02:52:31.886Z,8.50
2017-10-20T02:54:59.977Z,8.03
2017-10-20T02:57:28.895Z,7.47
2017-10-20T02:59:57.835Z,8.60
2017-10-20T03:02:26.009Z,9.07
2017-10-20T03:04:54.965Z,8.87
2017-10-20T03:07:23.084Z,9.67
2017-10-20T03:09:51.247Z,8.60
2017-10-20T03:12:19.387Z,10.27
2017-10-20T03:14:48.174Z,8.90
2017-10-20T03:17:16.288Z,8.50
2017-10-20T03:19:44.925Z,8.20
2017-10-20T03:22:13.196Z,7.73
2017-10-20T03:24:41.365Z,9.10
2017-10-20T03:27:09.531Z,8.90
2017-10-20T03:29:38.494Z,8.10
2017-10-20T03:32:07.374Z,7.57
2017-10-20T03:34:35.512Z,8.20
2017-10-20T03:37:03.635Z,8.43
2017-10-20T03:39:32.629Z,8.47
2017-10-20T03:42:01.506Z,7.53
2017-10-20T03:44:30.388Z,7.33
2017-10-20T03:46:59.323Z,9.10
2017-10-20T03:49:27.472Z,9.20
2017-10-20T03:51:56.459Z,8.67
2017-10-20T03:54:24.608Z,9.27
2017-10-20T03:56:53.041Z,8.30
2017-10-20T03:59:21.160Z,9.40
2017-10-20T04:01:50.313Z,9.00
2017-10-20T04:04:18.421Z,9.13
2017-10-20T04:06:46.542Z,7.87
2017-10-20T04:09:14.769Z,9.07
2017-10-20T04:11:42.944Z,9.20
2017-10-20T04:14:12.171Z,9.50
2017-10-20T04:16:41.147Z,10.80
2017-10-20T04:19:10.440Z,11.50
2017-10-20T04:21:39.008Z,13.03
2017-10-20T04:24:07.243Z,13.80
2017-10-20T04:26:36.391Z,13.43
2017-10-20T04:29:04.576Z,13.90
2017-10-20T04:31:33.517Z,16.03
2017-10-20T04:34:01.701Z,9.20
2017-10-20T04:36:29.916Z,11.57
2017-10-20T04:38:58.850Z,10.80
2017-10-20T04:41:27.224Z,12.67
2017-10-20T04:43:55.335Z,14.10
2017-10-20T04:46:23.571Z,11.70
2017-10-20T04:48:52.860Z,11.27
2017-10-20T04:51:21.844Z,9.10
2017-10-20T04:53:49.997Z,9.33
2017-10-20T04:56:18.139Z,7.83
2017-10-20T04:58:46.277Z,8.97
2017-10-20T05:01:14.400Z,6.50
2017-10-20T05:03:42.664Z,6.40
2017-10-20T05:06:11.671Z,7.90
2017-10-20T05:08:40.371Z,6.60
2017-10-20T05:11:09.334Z,6.13
2017-10-20T05:13:38.257Z,6.90
2017-10-20T05:16:07.237Z,6.43
2017-10-20T05:18:35.437Z,6.87
2017-10-20T05:21:03.586Z,6.23
2017-10-20T05:23:31.779Z,7.17
2017-10-20T05:25:59.953Z,6.20
2017-10-20T05:28:28.103Z,7.13
2017-10-20T05:30:56.303Z,6.40
2017-10-20T05:33:25.230Z,6.70
2017-10-20T05:35:53.395Z,6.17
2017-10-20T05:38:23.283Z,7.17
2017-10-20T05:40:51.466Z,7.47
2017-10-20T05:43:20.325Z,7.03
2017-10-20T05:45:48.872Z,7.43
2017-10-20T05:48:17.001Z,6.90
2017-10-20T05:50:50.897Z,8.10
2017-10-20T06:06:42.415Z,13.33
2017-10-20T06:09:11.386Z,14.47
2017-10-20T06:11:39.565Z,10.30
2017-10-20T06:14:07.702Z,10.67
2017-10-20T06:16:35.888Z,9.30
2017-10-20T06:19:04.089Z,10.60
2017-10-20T06:21:32.332Z,11.23
2017-10-20T06:24:00.491Z,10.40
2017-10-20T06:26:28.610Z,11.70
2017-10-20T06:28:56.809Z,10.33
2017-10-20T06:31:25.763Z,10.40
2017-10-20T06:33:53.962Z,10.53
2017-10-20T06:36:22.933Z,11.53
2017-10-20T06:38:51.764Z,11.13
2017-10-20T06:41:21.444Z,10.97
2017-10-20T06:43:49.748Z,11.30
2017-10-20T06:46:19.103Z,11.67
2017-10-20T06:48:50.255Z,12.97
2017-10-20T06:51:19.193Z,12.70
2017-10-20T06:53:47.430Z,15.40
2017-10-20T06:56:16.506Z,13.77
2017-10-20T06:58:44.643Z,14.00
2017-10-20T07:01:13.698Z,14.40
2017-10-20T07:03:41.930Z,15.47
2017-10-20T07:06:10.175Z,13.90
2017-10-20T07:08:38.449Z,15.20
2017-10-20T07:11:07.368Z,14.10
2017-10-20T07:13:35.585Z,13.37
2017-10-20T07:16:04.588Z,14.77
2017-10-20T08:04:04.234Z,11.90
2017-10-20T08:06:37.872Z,10.90
2017-10-20T08:09:11.631Z,11.53
2017-10-20T08:11:45.491Z,11.70
2017-10-20T08:14:19.126Z,10.77
2017-10-20T08:16:52.721Z,11.33
2017-10-20T08:19:27.227Z,10.90
2017-10-20T08:22:00.775Z,9.93
2017-10-20T08:24:34.963Z,9.57
2017-10-20T08:27:08.740Z,10.40
2017-10-20T08:29:42.472Z,9.53
2017-10-20T08:32:16.126Z,9.47
2017-10-20T08:34:49.888Z,9.23
2017-10-20T08:37:23.686Z,8.00
2017-10-20T08:39:57.591Z,8.20
2017-10-20T08:42:31.371Z,7.80
2017-10-20T08:45:05.101Z,8.87
2017-10-20T08:47:38.792Z,8.87
2017-10-20T08:50:12.424Z,8.40
2017-10-20T08:52:45.981Z,7.83
2017-10-20T08:55:19.651Z,8.03
2017-10-20T08:57:53.267Z,8.57
2017-10-20T09:00:27.099Z,8.17
2017-10-20T09:03:00.774Z,7.90
2017-10-20T09:05:34.355Z,8.03
2017-10-20T09:08:09.027Z,8.60
2017-10-20T09:10:42.773Z,8.57
2017-10-20T09:13:16.525Z,7.67
2017-10-20T09:15:50.339Z,8.07
2017-10-20T09:18:24.052Z,7.70
2017-10-20T09:20:57.699Z,7.93
2017-10-20T09:23:32.062Z,8.00
2017-10-20T09:26:06.539Z,8.90
2017-10-20T09:28:40.161Z,7.57
2017-10-20T09:31:13.843Z,6.70
2017-10-20T09:33:47.455Z,8.13
2017-10-20T09:36:21.099Z,8.30
2017-10-20T09:38:54.796Z,8.27
2017-10-20T09:41:28.579Z,8.43
2017-10-20T09:44:02.184Z,7.03
2017-10-20T09:46:35.728Z,7.93
2017-10-20T09:49:09.291Z,8.00
2017-10-20T09:51:43.010Z,7.00
2017-10-20T09:54:16.728Z,7.10
2017-10-20T09:56:51.105Z,7.47
2017-10-20T09:59:24.756Z,8.03
2017-10-20T10:01:58.323Z,10.67
2017-10-20T10:04:32.883Z,11.30
2017-10-20T10:07:07.388Z,11.53
2017-10-20T10:09:40.953Z,9.60
2017-10-20T10:12:14.604Z,9.43
2017-10-20T10:14:48.279Z,8.43
2017-10-20T10:17:21.965Z,8.70
2017-10-20T10:19:56.603Z,7.67
2017-10-20T10:22:30.330Z,7.30
2017-10-20T10:25:03.971Z,7.43
2017-10-20T10:27:37.762Z,7.30
2017-10-20T10:30:11.522Z,7.00
2017-10-20T10:32:45.354Z,6.53
2017-10-20T10:35:19.036Z,5.03
2017-10-20T10:37:52.779Z,5.30
2017-10-20T10:40:26.544Z,4.10
2017-10-20T10:43:00.343Z,4.27
2017-10-20T10:45:33.953Z,4.00
2017-10-20T10:48:07.615Z,4.40
2017-10-20T10:50:41.222Z,3.83
2017-10-20T10:53:14.805Z,3.63
2017-10-20T10:55:49.938Z,3.50
2017-10-20T10:58:23.684Z,3.00
2017-10-20T11:00:58.068Z,2.87
2017-10-20T11:03:31.749Z,3.23
2017-10-20T11:06:17.331Z,3.30
2017-10-20T11:09:02.782Z,3.20
2017-10-20T11:25:07.466Z,3.25
2017-10-20T11:27:41.170Z,3.27
2017-10-20T11:30:15.558Z,2.60
2017-10-20T11:32:49.267Z,2.60
2017-10-20T11:35:22.794Z,3.00
2017-10-20T11:37:56.456Z,4.53
2017-10-20T11:40:30.071Z,2.87
2017-10-20T11:43:03.641Z,1.97
2017-10-20T11:45:37.272Z,2.30
2017-10-20T11:48:10.990Z,2.30
2017-10-20T11:50:45.308Z,2.57
2017-10-20T11:53:19.695Z,2.00
2017-10-20T11:55:53.398Z,2.20
2017-10-20T11:58:27.119Z,2.07
2017-10-20T12:01:00.881Z,1.73
2017-10-20T12:03:34.760Z,2.10
2017-10-20T12:06:08.422Z,2.20
2017-10-20T12:08:42.054Z,2.13
2017-10-20T12:11:16.436Z,2.60
2017-10-20T12:13:50.968Z,2.50
2017-10-20T12:16:24.706Z,2.30
2017-10-20T12:18:58.424Z,4.17
2017-10-20T12:21:32.895Z,2.67
2017-10-20T12:24:06.507Z,2.20
2017-10-20T12:26:40.964Z,2.47
2017-10-20T12:29:14.828Z,2.50
2017-10-20T12:31:48.424Z,2.10
2017-10-20T12:34:22.023Z,3.23
2017-10-20T12:36:55.649Z,2.20
2017-10-20T12:39:29.383Z,2.00
2017-10-20T12:42:03.028Z,1.93
2017-10-20T12:44:36.659Z,1.70
2017-10-20T12:47:11.124Z,1.80
2017-10-20T12:49:45.543Z,1.77
2017-10-20T12:52:19.371Z,2.10
2017-10-20T12:54:53.181Z,1.90
2017-10-20T12:57:26.915Z,1.77
2017-10-20T13:00:00.551Z,2.03
2017-10-20T13:02:34.907Z,1.47
2017-10-20T13:05:10.203Z,1.87
2017-10-20T13:07:43.828Z,1.93
2017-10-20T13:10:17.599Z,1.67
2017-10-20T13:12:51.395Z,1.60
2017-10-20T13:15:25.951Z,2.00
2017-10-20T13:18:00.296Z,1.60
2017-10-20T13:20:33.861Z,1.90
2017-10-20T13:23:07.477Z,1.67
2017-10-20T13:25:41.198Z,1.60
2017-10-20T13:28:15.497Z,1.50
2017-10-20T13:30:49.078Z,1.90
2017-10-20T13:33:22.932Z,1.57
2017-10-20T13:35:56.598Z,1.60
2017-10-20T13:38:30.216Z,2.17
2017-10-20T13:41:03.876Z,2.13
2017-10-20T13:43:38.408Z,1.97
2017-10-20T13:46:11.940Z,1.80
2017-10-20T13:48:45.611Z,2.40
2017-10-20T13:51:19.212Z,1.50
2017-10-20T13:53:52.803Z,1.37
2017-10-20T13:56:27.111Z,1.40
2017-10-20T13:59:02.295Z,1.53
2017-10-20T14:01:35.872Z,1.77
2017-10-20T14:04:10.357Z,1.57
2017-10-20T14:06:44.087Z,1.50
2017-10-20T14:09:17.703Z,1.60
2017-10-20T14:11:51.277Z,2.00
2017-10-20T14:14:25.019Z,2.47
2017-10-20T14:16:58.744Z,1.87
2017-10-20T14:19:32.500Z,1.43
2017-10-20T14:22:06.331Z,2.27
2017-10-20T14:24:40.161Z,1.83
2017-10-20T14:27:13.815Z,2.03
2017-10-20T14:29:47.456Z,1.83
2017-10-20T14:32:21.255Z,1.93
2017-10-20T14:34:54.971Z,1.60
2017-10-20T14:37:28.755Z,2.57
2017-10-20T14:40:03.300Z,1.80
2017-10-20T14:42:37.104Z,1.97
2017-10-20T14:45:10.831Z,1.53
2017-10-20T14:47:45.250Z,1.90
2017-10-20T14:50:18.857Z,2.00
2017-10-20T14:52:53.386Z,2.33
2017-10-20T14:55:27.779Z,1.73
2017-10-20T14:58:01.515Z,1.97
2017-10-20T15:00:35.228Z,1.87
2017-10-20T15:03:09.556Z,2.13
2017-10-20T15:05:43.228Z,1.70
2017-10-20T15:08:17.771Z,1.70
2017-10-20T15:10:52.084Z,1.80
2017-10-20T15:13:26.413Z,1.90
2017-10-20T15:16:00.000Z,2.30
2017-10-20T15:18:33.621Z,2.30
2017-10-20T15:21:07.472Z,1.80
2017-10-20T15:23:41.001Z,1.90
2017-10-20T15:26:14.614Z,1.90
2017-10-20T15:28:48.319Z,2.03
2017-10-20T15:31:22.723Z,4.00
2017-10-20T15:33:56.316Z,2.20
2017-10-20T15:36:29.953Z,1.77
2017-10-20T15:39:03.554Z,2.10
2017-10-20T15:41:37.374Z,2.00
2017-10-20T15:44:11.019Z,1.77
2017-10-20T15:46:44.654Z,2.63
2017-10-20T15:49:18.355Z,1.80
2017-10-20T15:51:51.975Z,2.90
2017-10-20T15:54:25.576Z,2.43
2017-10-20T15:56:59.263Z,2.10
2017-10-20T15:59:32.997Z,2.17
2017-10-20T16:02:08.117Z,1.67
2017-10-20T16:04:41.864Z,4.73
2017-10-20T16:07:15.524Z,2.00
2017-10-20T16:09:49.191Z,2.63
2017-10-20T16:12:23.745Z,1.73
2017-10-20T16:14:57.444Z,1.70
2017-10-20T16:17:31.052Z,2.13
2017-10-20T16:20:04.646Z,3.87
2017-10-20T16:22:38.900Z,2.47
2017-10-20T16:25:13.409Z,2.20
2017-10-20T16:27:47.952Z,2.10
2017-10-20T16:30:21.792Z,1.97
2017-10-20T16:33:01.391Z,2.23
2017-10-20T16:35:37.053Z,2.00
2017-10-20T16:38:14.794Z,1.73
2017-10-20T16:40:54.741Z,1.97
2017-10-20T16:43:30.525Z,2.30
2017-10-20T16:46:05.957Z,2.00
2017-10-20T16:48:41.000Z,2.47
2017-10-20T16:51:20.701Z,2.40
2017-10-20T16:54:11.784Z,2.70
2017-10-20T16:56:46.331Z,2.07
2017-10-20T16:59:28.784Z,2.20
2017-10-20T17:02:07.924Z,2.00
2017-10-20T17:07:31.837Z,2.07
2017-10-20T17:12:57.255Z,2.43
2017-10-20T17:18:22.833Z,2.40
2017-10-20T17:20:57.352Z,2.53
2017-10-20T17:23:31.653Z,2.90
2017-10-20T17:26:07.046Z,2.20
2017-10-20T17:28:42.483Z,2.63
2017-10-20T17:31:17.097Z,2.20
2017-10-20T17:33:50.794Z,3.07
2017-10-20T17:36:25.013Z,2.70
2017-10-20T17:38:58.988Z,2.73
2017-10-20T17:41:33.801Z,2.80
2017-10-20T17:44:07.650Z,2.00
2017-10-20T17:46:42.134Z,4.10
2017-10-20T17:49:18.257Z,2.23
2017-10-20T17:51:52.187Z,2.60
2017-10-20T17:54:27.323Z,2.87
2017-10-20T17:57:02.326Z,2.50
2017-10-20T17:59:36.178Z,2.30
2017-10-20T18:02:10.810Z,2.27
2017-10-20T18:04:45.312Z,2.37
2017-10-20T18:07:22.096Z,2.87
2017-10-20T18:09:56.034Z,3.03
2017-10-20T18:12:30.097Z,3.10
2017-10-20T18:15:04.205Z,2.80
2017-10-20T18:17:38.131Z,2.70
2017-10-20T18:20:11.956Z,2.10
2017-10-20T18:22:45.659Z,2.97
2017-10-20T18:25:19.421Z,3.37
2017-10-20T18:27:53.149Z,3.47
2017-10-20T18:30:27.924Z,2.80
2017-10-20T18:33:01.727Z,2.77
2017-10-20T18:35:35.564Z,2.67
2017-10-20T18:38:09.360Z,2.70
2017-10-20T18:40:43.846Z,3.03
2017-10-20T18:43:18.345Z,3.67
2017-10-20T18:45:52.896Z,3.07
2017-10-20T18:48:26.840Z,3.03
2017-10-20T18:51:00.656Z,2.70
2017-10-20T18:53:35.713Z,3.33
2017-10-20T18:56:09.471Z,3.20
2017-10-20T18:58:43.304Z,3.33
2017-10-20T19:01:17.740Z,3.43
2017-10-20T19:03:51.576Z,3.23
2017-10-20T19:06:25.424Z,2.90
2017-10-20T19:08:59.840Z,3.50
2017-10-20T19:11:34.446Z,3.00
2017-10-20T19:14:08.637Z,2.90
2017-10-20T19:16:42.508Z,3.17
2017-10-20T19:19:16.501Z,3.10
2017-10-20T19:21:50.568Z,2.90
2017-10-20T19:24:24.654Z,4.93
2017-10-20T19:26:58.518Z,2.90
2017-10-20T19:29:32.550Z,2.90
2017-10-20T19:32:06.434Z,2.53
2017-10-20T19:34:40.826Z,2.70
2017-10-20T19:37:15.464Z,3.17
2017-10-20T19:39:49.569Z,3.73
2017-10-20T19:42:23.452Z,2.60
2017-10-20T19:44:58.131Z,2.90
2017-10-20T19:47:31.983Z,2.87
2017-10-20T19:50:05.918Z,2.90
2017-10-20T19:52:39.768Z,3.00
2017-10-20T19:55:15.317Z,3.30
2017-10-20T19:57:49.287Z,3.00
2017-10-20T20:00:23.962Z,3.10
2017-10-20T20:02:57.759Z,3.23
2017-10-20T20:05:32.453Z,3.33
2017-10-20T20:08:06.531Z,3.60
2017-10-20T20:10:40.367Z,3.70
2017-10-20T20:13:14.130Z,3.50
2017-10-20T20:15:48.375Z,3.27
2017-10-20T20:18:22.641Z,3.10
2017-10-20T20:20:57.335Z,3.33
2017-10-20T20:23:31.219Z,2.83
2017-10-20T20:26:05.048Z,2.93
2017-10-20T20:28:38.831Z,3.40
2017-10-20T20:31:12.838Z,3.37
2017-10-20T20:33:48.659Z,10.00
2017-10-20T20:36:23.078Z,3.27
2017-10-20T20:38:56.840Z,2.93
2017-10-20T20:41:30.581Z,2.80
2017-10-20T20:44:05.221Z,3.63
2017-10-20T20:46:39.030Z,3.33
2017-10-20T20:49:13.608Z,2.80
2017-10-20T20:51:47.331Z,3.20
2017-10-20T20:54:21.058Z,3.43
2017-10-20T20:56:55.257Z,3.30
2017-10-20T20:59:29.289Z,3.33
2017-10-20T21:02:03.874Z,3.00
2017-10-20T21:04:37.637Z,3.37
2017-10-20T21:07:12.394Z,2.30
2017-10-20T21:09:46.150Z,3.03
2017-10-20T21:12:21.495Z,3.10
2017-10-20T21:14:55.368Z,3.90
2017-10-20T21:17:29.199Z,3.37
2017-10-20T21:20:03.941Z,3.00
2017-10-20T21:22:37.903Z,3.40
2017-10-20T21:25:12.607Z,5.70
2017-10-20T21:27:46.883Z,3.33
2017-10-20T21:30:20.767Z,3.20
2017-10-20T21:32:54.911Z,3.90
2017-10-20T21:35:28.745Z,4.23
2017-10-20T21:38:03.399Z,3.30
2017-10-20T21:40:37.539Z,3.33
2017-10-20T21:43:11.272Z,3.20
2017-10-20T21:45:45.873Z,2.83
2017-10-20T21:48:21.108Z,3.13
2017-10-20T21:50:55.749Z,3.13
2017-10-20T21:53:29.527Z,3.30
2017-10-20T21:56:03.442Z,3.23
2017-10-20T21:58:37.254Z,3.67
2017-10-20T22:01:11.389Z,2.77
2017-10-20T22:03:45.290Z,3.63
2017-10-20T22:06:20.659Z,3.60
2017-10-20T22:08:54.520Z,2.77
2017-10-20T22:11:29.238Z,3.30
2017-10-20T22:14:03.072Z,3.30
2017-10-20T22:16:36.998Z,3.50
2017-10-20T22:19:10.949Z,3.83
2017-10-20T22:21:45.597Z,2.97
2017-10-20T22:24:19.387Z,3.23
2017-10-20T22:26:53.247Z,3.20
2017-10-20T22:29:27.136Z,3.70
2017-10-20T22:32:01.522Z,3.30
2017-10-20T22:34:36.041Z,2.93
2017-10-20T22:37:10.863Z,4.27
2017-10-20T22:39:45.412Z,4.40
2017-10-20T22:42:19.178Z,3.80
2017-10-20T22:44:52.984Z,3.67
2017-10-20T22:47:26.744Z,4.00
2017-10-20T22:50:00.474Z,4.00
2017-10-20T22:52:34.251Z,4.00
2017-10-20T22:55:08.129Z,4.97
2017-10-20T22:57:42.063Z,4.03
2017-10-20T23:00:17.388Z,5.03
2017-10-20T23:02:51.373Z,4.20
2017-10-20T23:05:25.274Z,3.93
2017-10-20T23:07:59.076Z,3.73
2017-10-20T23:10:32.947Z,3.20
2017-10-20T23:13:08.778Z,3.30
2017-10-20T23:15:42.451Z,4.17
2017-10-20T23:18:16.133Z,3.70
2017-10-20T23:20:50.000Z,4.30
2017-10-20T23:23:24.864Z,3.40
2017-10-20T23:25:59.452Z,3.53
2017-10-20T23:28:33.195Z,3.67
2017-10-20T23:31:07.039Z,3.13
2017-10-20T23:33:41.673Z,4.00
2017-10-20T23:36:16.424Z,4.00
2017-10-20T23:38:50.960Z,4.00
2017-10-20T23:41:25.160Z,3.73
2017-10-20T23:43:59.641Z,3.37
2017-10-20T23:46:33.398Z,4.30
2017-10-20T23:49:07.224Z,3.20
2017-10-20T23:51:41.217Z,4.10
2017-10-20T23:54:15.028Z,3.97
2017-10-20T23:56:48.734Z,3.70
2017-10-20T23:59:22.687Z,3.13
